createdAt,value
2023-03-03T00:01:56.399Z,0.75
2023-03-03T00:11:57.734Z,0.59
2023-03-03T00:21:59.023Z,0.53
2023-03-03T00:32:01.565Z,0.47
2023-03-03T00:42:06.062Z,0.30
2023-03-03T00:52:07.331Z,0.04
2023-03-03T01:02:08.576Z,-0.08
2023-03-03T01:12:09.827Z,-0.15
2023-03-03T01:22:11.043Z,-0.26
2023-03-03T01:32:12.300Z,-0.33
2023-03-03T01:42:13.539Z,-0.38
2023-03-03T01:52:14.805Z,-0.48
2023-03-03T02:02:16.172Z,-0.58
2023-03-03T02:12:17.396Z,-0.73
2023-03-03T02:22:18.642Z,-0.76
2023-03-03T02:32:19.910Z,-0.93
2023-03-03T02:42:21.414Z,-1.00
2023-03-03T02:52:22.635Z,-1.09
2023-03-03T03:02:23.853Z,-1.22
2023-03-03T03:12:25.062Z,-1.17
2023-03-03T03:22:26.313Z,-1.33
2023-03-03T03:32:27.544Z,-1.41
2023-03-03T03:42:29.054Z,-1.39
2023-03-03T03:52:30.292Z,-1.37
2023-03-03T04:02:31.615Z,-1.44
2023-03-03T04:12:38.314Z,-1.53
2023-03-03T04:22:39.635Z,-1.57
2023-03-03T04:32:40.946Z,-1.67
2023-03-03T04:42:42.328Z,-1.66
2023-03-03T04:52:43.583Z,-1.81
2023-03-03T05:02:44.805Z,-1.81
2023-03-03T05:12:46.031Z,-1.94
2023-03-03T05:22:47.255Z,-1.95
2023-03-03T05:32:48.665Z,-2.04
2023-03-03T05:42:50.095Z,-2.09
2023-03-03T05:52:53.999Z,-2.24
2023-03-03T06:02:55.261Z,-2.26
2023-03-03T06:12:56.632Z,-2.24
2023-03-03T06:22:57.926Z,-2.21
2023-03-03T06:32:59.308Z,-2.08
2023-03-03T06:43:02.695Z,-1.85
2023-03-03T06:53:03.965Z,-1.43
2023-03-03T07:03:05.178Z,-1.01
2023-03-03T07:13:07.368Z,-0.73
2023-03-03T07:23:08.572Z,-0.52
2023-03-03T07:33:09.783Z,-0.28
2023-03-03T07:43:11.005Z,0.02
2023-03-03T07:53:12.894Z,0.33
2023-03-03T08:03:14.162Z,0.54
2023-03-03T08:13:15.353Z,0.60
2023-03-03T08:23:16.644Z,1.02
2023-03-03T08:33:18.125Z,1.35
2023-03-03T08:43:21.636Z,1.73
2023-03-03T08:53:22.988Z,2.07
2023-03-03T09:03:24.235Z,2.44
2023-03-03T09:13:25.485Z,2.80
2023-03-03T09:23:26.723Z,3.17
2023-03-03T09:33:28.089Z,3.49
2023-03-03T09:43:29.591Z,3.73
2023-03-03T09:53:31.594Z,3.88
2023-03-03T10:03:32.902Z,4.38
2023-03-03T10:13:34.261Z,4.41
2023-03-03T10:23:36.048Z,4.74
2023-03-03T10:33:37.359Z,4.94
2023-03-03T10:43:38.978Z,5.04
2023-03-03T10:53:40.650Z,5.49
2023-03-03T11:03:41.923Z,5.60
2023-03-03T11:13:44.586Z,6.06
2023-03-03T11:23:57.543Z,5.91
2023-03-03T11:33:58.866Z,6.43
2023-03-03T11:44:00.300Z,6.55
2023-03-03T11:54:02.220Z,6.56
2023-03-03T12:04:03.436Z,6.72
2023-03-03T12:14:04.951Z,6.91
2023-03-03T12:24:06.541Z,7.33
2023-03-03T12:34:11.339Z,7.44
2023-03-03T12:44:12.700Z,7.36
2023-03-03T12:54:14.329Z,7.46
2023-03-03T13:04:15.660Z,7.58
2023-03-03T13:14:16.968Z,7.67
2023-03-03T13:24:18.358Z,7.80
2023-03-03T13:34:20.018Z,8.00
2023-03-03T13:44:22.866Z,8.02
2023-03-03T13:54:25.070Z,8.17
2023-03-03T14:04:26.891Z,8.01
2023-03-03T14:14:28.403Z,8.40
2023-03-03T14:35:07.776Z,8.46
2023-03-03T14:45:27.246Z,8.40
2023-03-03T14:55:30.416Z,8.37
2023-03-03T15:05:32.168Z,8.44
2023-03-03T15:15:33.553Z,8.50
2023-03-03T15:25:43.304Z,8.20
2023-03-03T15:35:45.606Z,8.46
2023-03-03T15:56:18.043Z,8.26
2023-03-03T16:06:19.612Z,8.24
2023-03-03T16:16:21.440Z,8.17
2023-03-03T16:26:22.710Z,8.06
2023-03-03T16:36:24.103Z,7.88
2023-03-03T16:46:25.336Z,7.61
2023-03-03T16:56:26.640Z,7.23
2023-03-03T17:06:27.937Z,7.08
2023-03-03T17:16:35.028Z,6.83
2023-03-03T17:27:04.480Z,6.57
2023-03-03T17:37:05.734Z,6.27
2023-03-03T17:47:07.275Z,6.06
2023-03-03T17:57:08.908Z,5.86
2023-03-03T18:07:10.202Z,5.72
2023-03-03T18:17:11.475Z,5.73
2023-03-03T18:27:26.581Z,5.58
2023-03-03T18:37:28.421Z,5.31
2023-03-03T18:47:29.682Z,5.13
2023-03-03T18:57:31.095Z,4.91
2023-03-03T19:07:32.550Z,4.58
2023-03-03T19:17:33.872Z,4.31
2023-03-03T19:27:35.140Z,3.99
2023-03-03T19:37:36.764Z,3.71
2023-03-03T19:47:38.114Z,3.71
2023-03-03T19:57:39.338Z,3.79
2023-03-03T20:07:40.551Z,3.85
2023-03-03T20:17:41.981Z,4.03
2023-03-03T20:27:45.797Z,3.99
2023-03-03T20:37:47.289Z,3.84
2023-03-03T20:47:48.512Z,3.72
2023-03-03T20:57:49.812Z,3.60
2023-03-03T21:07:51.598Z,3.47
2023-03-03T21:17:54.911Z,3.31
2023-03-03T21:27:56.149Z,3.24
2023-03-03T21:37:57.587Z,2.95
2023-03-03T21:48:01.369Z,2.92
2023-03-03T21:58:03.754Z,2.73
2023-03-03T22:08:05.041Z,2.61
2023-03-03T22:18:06.326Z,2.49
2023-03-03T22:28:07.612Z,2.42
2023-03-03T22:38:08.945Z,2.26
2023-03-03T22:48:10.150Z,2.18
2023-03-03T22:58:11.384Z,2.01
2023-03-03T23:08:12.662Z,1.84
2023-03-03T23:18:13.871Z,1.72
2023-03-03T23:28:15.797Z,1.66
2023-03-03T23:38:17.898Z,1.56
2023-03-03T23:48:20.665Z,1.52
2023-03-03T23:58:21.931Z,1.39
